createdAt,value
2022-12-18T00:00:57.403Z,66.13
2022-12-18T00:06:17.745Z,60.90
2022-12-18T00:11:23.195Z,54.36
2022-12-18T00:16:27.103Z,57.99
2022-12-18T00:21:46.469Z,66.43
2022-12-18T00:26:48.951Z,65.06
2022-12-18T00:31:51.638Z,55.07
2022-12-18T00:36:54.341Z,55.82
2022-12-18T00:41:59.838Z,66.77
2022-12-18T00:47:02.375Z,62.80
2022-12-18T00:52:05.452Z,55.07
2022-12-18T00:57:07.951Z,58.07
2022-12-18T01:02:10.608Z,63.13
2022-12-18T01:07:13.144Z,68.99
2022-12-18T01:12:15.815Z,58.94
2022-12-18T01:17:18.423Z,54.43
2022-12-18T01:22:20.949Z,57.41
2022-12-18T01:27:23.474Z,59.75
2022-12-18T01:32:25.993Z,60.72
2022-12-18T01:37:28.597Z,64.18
2022-12-18T01:42:31.140Z,72.25
2022-12-18T01:47:37.590Z,61.65
2022-12-18T01:52:43.210Z,55.57
2022-12-18T01:57:45.974Z,59.20
2022-12-18T02:02:49.035Z,66.64
2022-12-18T02:08:19.297Z,66.03
2022-12-18T02:13:33.280Z,56.68
2022-12-18T02:18:45.129Z,55.58
2022-12-18T02:23:50.539Z,61.03
2022-12-18T02:28:59.613Z,68.97
2022-12-18T02:34:05.737Z,59.70
2022-12-18T02:39:09.952Z,53.94
2022-12-18T02:44:14.522Z,57.44
2022-12-18T02:49:23.072Z,59.70
2022-12-18T02:54:32.499Z,69.42
2022-12-18T02:59:43.968Z,66.03
2022-12-18T03:04:55.482Z,54.70
2022-12-18T03:09:59.092Z,55.14
2022-12-18T03:15:15.939Z,59.37
2022-12-18T03:20:22.994Z,59.80
2022-12-18T03:25:27.653Z,70.41
2022-12-18T03:30:34.855Z,63.13
2022-12-18T03:35:41.127Z,57.55
2022-12-18T03:40:51.851Z,52.97
2022-12-18T03:46:03.878Z,51.02
2022-12-18T03:51:10.964Z,49.95
2022-12-18T03:56:17.092Z,48.67
2022-12-18T04:01:21.899Z,48.14
2022-12-18T04:06:24.556Z,48.51
2022-12-18T04:11:27.316Z,47.63
2022-12-18T04:16:30.103Z,47.53
2022-12-18T04:21:32.581Z,47.04
2022-12-18T04:26:35.193Z,46.62
2022-12-18T04:31:37.878Z,46.93
2022-12-18T04:36:40.402Z,46.34
2022-12-18T04:41:42.863Z,46.28
2022-12-18T04:46:45.434Z,46.43
2022-12-18T04:51:48.000Z,46.91
2022-12-18T04:56:50.543Z,47.28
2022-12-18T05:01:53.241Z,47.07
2022-12-18T05:06:55.868Z,47.08
2022-12-18T05:11:58.344Z,47.50
2022-12-18T05:17:01.408Z,47.90
2022-12-18T05:22:04.039Z,48.01
2022-12-18T05:27:06.566Z,47.76
2022-12-18T05:32:09.035Z,47.48
2022-12-18T05:37:11.526Z,47.75
2022-12-18T05:42:13.996Z,46.37
2022-12-18T05:47:16.747Z,47.26
2022-12-18T05:52:19.307Z,50.21
2022-12-18T05:57:21.823Z,52.95
2022-12-18T06:02:24.430Z,54.62
2022-12-18T06:07:27.141Z,55.54
2022-12-18T06:12:29.615Z,57.63
2022-12-18T06:17:33.494Z,59.72
2022-12-18T06:22:36.096Z,60.80
2022-12-18T06:27:38.653Z,70.04
2022-12-18T06:32:41.231Z,71.35
2022-12-18T06:37:43.736Z,62.64
2022-12-18T06:42:46.434Z,55.12
2022-12-18T06:47:48.889Z,56.36
2022-12-18T06:52:51.403Z,57.02
2022-12-18T06:57:53.932Z,61.75
2022-12-18T07:02:56.461Z,72.31
2022-12-18T07:07:59.707Z,64.76
2022-12-18T07:13:02.183Z,55.98
2022-12-18T07:18:04.794Z,55.27
2022-12-18T07:23:07.612Z,57.26
2022-12-18T07:28:15.627Z,68.50
2022-12-18T07:33:19.760Z,67.23
2022-12-18T07:38:22.951Z,60.61
2022-12-18T07:43:25.398Z,54.95
2022-12-18T07:48:29.425Z,57.01
2022-12-18T07:53:33.337Z,65.31
2022-12-18T07:58:36.533Z,65.81
2022-12-18T08:03:40.983Z,58.71
2022-12-18T08:08:45.207Z,52.27
2022-12-18T08:13:47.662Z,54.92
2022-12-18T08:18:50.632Z,58.16
2022-12-18T08:23:54.854Z,61.11
2022-12-18T08:28:59.457Z,72.12
2022-12-18T08:34:02.007Z,64.63
2022-12-18T08:39:04.520Z,54.68
2022-12-18T08:44:11.542Z,57.74
2022-12-18T08:49:14.238Z,66.58
2022-12-18T08:54:16.702Z,58.35
2022-12-18T08:59:20.786Z,56.65
2022-12-18T09:04:23.558Z,64.16
2022-12-18T09:09:26.048Z,56.97
2022-12-18T09:14:28.550Z,60.68
2022-12-18T09:19:31.241Z,60.49
2022-12-18T09:24:33.782Z,54.39
2022-12-18T09:29:36.242Z,59.02
2022-12-18T09:34:38.729Z,60.02
2022-12-18T09:39:41.210Z,70.59
2022-12-18T09:44:48.935Z,61.04
2022-12-18T09:49:57.409Z,53.55
2022-12-18T09:55:05.804Z,61.88
2022-12-18T10:00:19.573Z,55.20
2022-12-18T10:05:34.934Z,56.45
2022-12-18T10:10:49.696Z,62.19
2022-12-18T10:15:59.372Z,61.86
2022-12-18T10:21:12.769Z,52.63
2022-12-18T10:26:15.421Z,57.86
2022-12-18T10:31:24.758Z,58.40
2022-12-18T10:36:27.720Z,65.60
2022-12-18T10:41:31.824Z,59.64
2022-12-18T10:46:34.464Z,55.56
2022-12-18T10:51:38.622Z,57.06
2022-12-18T10:56:41.678Z,58.82
2022-12-18T11:01:50.452Z,60.42
2022-12-18T11:06:54.784Z,68.13
2022-12-18T11:12:00.436Z,60.46
2022-12-18T11:17:25.428Z,52.45
2022-12-18T11:22:32.316Z,56.88
2022-12-18T11:27:34.827Z,65.28
2022-12-18T11:32:40.284Z,60.61
2022-12-18T11:37:47.064Z,52.16
2022-12-18T11:42:55.668Z,55.61
2022-12-18T11:48:01.393Z,57.77
2022-12-18T11:53:06.265Z,64.57
2022-12-18T11:58:18.275Z,62.21
2022-12-18T12:03:40.111Z,52.34
2022-12-18T12:08:57.268Z,58.24
2022-12-18T12:14:02.663Z,64.22
2022-12-18T12:19:08.074Z,53.89
2022-12-18T12:24:10.500Z,54.89
2022-12-18T12:29:21.299Z,58.63
2022-12-18T12:34:35.579Z,60.86
2022-12-18T12:39:41.635Z,68.62
2022-12-18T12:44:56.209Z,63.06
2022-12-18T12:50:08.089Z,53.26
2022-12-18T12:55:16.951Z,57.62
2022-12-18T13:00:20.965Z,59.41
2022-12-18T13:05:30.029Z,60.53
2022-12-18T13:10:34.008Z,69.04
2022-12-18T13:15:41.969Z,63.79
2022-12-18T13:20:53.715Z,54.10
2022-12-18T13:26:28.146Z,56.15
2022-12-18T13:31:37.514Z,59.99
2022-12-18T13:36:40.418Z,68.28
2022-12-18T13:41:43.637Z,64.11
2022-12-18T13:46:47.799Z,55.17
2022-12-18T13:51:52.700Z,56.09
2022-12-18T13:56:55.655Z,59.92
2022-12-18T14:02:02.996Z,61.93
2022-12-18T14:07:11.598Z,69.46
2022-12-18T14:12:25.648Z,64.94
2022-12-18T14:17:28.485Z,56.13
2022-12-18T14:22:31.754Z,56.95
2022-12-18T14:27:39.854Z,64.06
2022-12-18T14:32:42.328Z,69.28
2022-12-18T14:37:44.811Z,60.90
2022-12-18T14:42:47.378Z,56.80
2022-12-18T14:47:49.874Z,60.76
2022-12-18T14:52:53.335Z,69.58
2022-12-18T14:57:57.199Z,65.63
2022-12-18T15:02:59.841Z,58.16
2022-12-18T15:08:03.521Z,56.82
2022-12-18T15:13:06.319Z,64.97
2022-12-18T15:18:08.760Z,63.38
2022-12-18T15:23:16.080Z,55.87
2022-12-18T15:28:24.662Z,58.20
2022-12-18T15:33:31.937Z,62.51
2022-12-18T15:38:34.462Z,68.29
2022-12-18T15:43:39.151Z,58.57
2022-12-18T15:48:45.799Z,54.34
2022-12-18T15:53:51.097Z,57.72
2022-12-18T15:58:53.585Z,59.57
2022-12-18T16:03:57.033Z,60.48
2022-12-18T16:08:59.774Z,61.39
2022-12-18T16:14:02.314Z,72.54
2022-12-18T16:19:05.029Z,68.19
2022-12-18T16:24:15.796Z,60.54
2022-12-18T16:29:19.208Z,53.81
2022-12-18T16:34:28.755Z,57.76
2022-12-18T16:39:31.758Z,61.21
2022-12-18T16:44:34.827Z,68.75
2022-12-18T16:49:38.454Z,67.23
2022-12-18T16:54:40.964Z,57.42
2022-12-18T16:59:43.800Z,56.24
2022-12-18T17:04:47.309Z,60.12
2022-12-18T17:09:52.005Z,67.90
2022-12-18T17:14:54.512Z,66.18
2022-12-18T17:19:57.076Z,56.83
2022-12-18T17:24:59.573Z,56.18
2022-12-18T17:30:02.582Z,59.58
2022-12-18T17:35:07.373Z,66.56
2022-12-18T17:40:10.576Z,66.04
2022-12-18T17:45:13.046Z,58.16
2022-12-18T17:50:15.690Z,55.56
2022-12-18T17:55:18.319Z,58.33
2022-12-18T18:01:38.518Z,63.11
2022-12-18T18:06:53.182Z,67.35
2022-12-18T18:11:58.655Z,56.92
2022-12-18T18:17:04.664Z,55.45
2022-12-18T18:22:07.524Z,58.64
2022-12-18T18:27:10.383Z,59.52
2022-12-18T18:32:12.998Z,61.54
2022-12-18T18:37:15.475Z,70.04
2022-12-18T18:42:17.942Z,63.16
2022-12-18T18:47:20.948Z,53.56
2022-12-18T18:52:23.590Z,56.68
2022-12-18T18:57:30.294Z,59.45
2022-12-18T19:02:33.364Z,66.07
2022-12-18T19:07:36.025Z,62.39
2022-12-18T19:12:41.517Z,53.78
2022-12-18T19:17:46.951Z,49.13
2022-12-18T19:22:54.988Z,46.57
2022-12-18T19:27:58.323Z,44.27
2022-12-18T19:33:09.756Z,42.92
2022-12-18T19:38:23.271Z,42.57
2022-12-18T19:43:25.921Z,42.09
2022-12-18T19:48:29.243Z,41.27
2022-12-18T19:53:32.031Z,40.25
2022-12-18T19:58:35.140Z,39.97
2022-12-18T20:03:37.925Z,39.91
2022-12-18T20:08:41.480Z,40.08
2022-12-18T20:13:44.842Z,39.62
2022-12-18T20:18:49.064Z,38.42
2022-12-18T20:23:52.458Z,38.81
2022-12-18T20:28:55.801Z,39.36
2022-12-18T20:34:01.484Z,38.74
2022-12-18T20:39:06.541Z,38.57
2022-12-18T20:44:21.772Z,38.86
2022-12-18T20:49:27.310Z,39.61
2022-12-18T20:54:29.969Z,39.16
2022-12-18T20:59:32.647Z,38.87
2022-12-18T21:04:35.141Z,39.56
2022-12-18T21:09:38.650Z,40.33
2022-12-18T21:14:42.816Z,39.75
2022-12-18T21:19:45.278Z,38.91
2022-12-18T21:24:48.899Z,38.17
2022-12-18T21:29:52.247Z,38.29
2022-12-18T21:34:55.235Z,38.51
2022-12-18T21:39:57.725Z,39.28
2022-12-18T21:45:00.372Z,40.14
2022-12-18T21:50:03.143Z,40.52
2022-12-18T21:55:09.341Z,40.58
2022-12-18T22:00:18.752Z,39.64
2022-12-18T22:05:22.326Z,39.62
2022-12-18T22:10:24.795Z,39.13
2022-12-18T22:15:27.349Z,38.68
2022-12-18T22:20:30.270Z,38.63
2022-12-18T22:25:33.988Z,38.73
2022-12-18T22:30:37.706Z,38.40
2022-12-18T22:35:40.261Z,37.75
2022-12-18T22:40:43.625Z,37.61
2022-12-18T22:45:47.263Z,37.24
2022-12-18T22:50:49.865Z,38.02
2022-12-18T22:56:00.463Z,38.64
2022-12-18T23:01:03.046Z,38.50
2022-12-18T23:06:06.977Z,39.06
2022-12-18T23:11:10.700Z,39.11
2022-12-18T23:16:16.413Z,39.41
2022-12-18T23:21:20.644Z,39.11
2022-12-18T23:26:25.396Z,38.42
2022-12-18T23:31:30.633Z,37.54
2022-12-18T23:36:43.883Z,36.73
2022-12-18T23:41:49.187Z,36.39
2022-12-18T23:46:51.800Z,36.32
2022-12-18T23:51:55.031Z,36.71
2022-12-18T23:56:57.544Z,37.26
